createdAt,value
2018-01-23T00:00:16.866Z,1009.80
2018-01-23T00:01:17.001Z,1009.79
2018-01-23T00:02:16.534Z,1009.86
2018-01-23T00:03:16.661Z,1009.89
2018-01-23T00:04:16.602Z,1009.94
2018-01-23T00:05:16.728Z,1009.93
2018-01-23T00:06:16.251Z,1009.93
2018-01-23T00:07:16.384Z,1009.92
2018-01-23T00:08:16.317Z,1009.90
2018-01-23T00:09:16.453Z,1009.92
2018-01-23T00:10:15.991Z,1009.92
2018-01-23T00:11:16.126Z,1009.91
2018-01-23T00:12:16.053Z,1009.90
2018-01-23T00:13:16.194Z,1009.96
2018-01-23T00:14:15.715Z,1009.97
2018-01-23T00:15:15.843Z,1010.03
2018-01-23T00:16:15.783Z,1010.06
2018-01-23T00:17:15.916Z,1010.11
2018-01-23T00:18:15.451Z,1010.18
2018-01-23T00:19:15.577Z,1010.24
2018-01-23T00:20:15.513Z,1010.28
2018-01-23T00:21:15.647Z,1010.36
2018-01-23T00:22:15.167Z,1010.41
2018-01-23T00:23:15.301Z,1010.49
2018-01-23T00:24:15.235Z,1010.58
2018-01-23T00:25:15.375Z,1010.64
2018-01-23T00:26:14.904Z,1010.69
2018-01-23T00:27:15.037Z,1010.75
2018-01-23T00:28:14.976Z,1010.76
2018-01-23T00:29:15.105Z,1010.75
2018-01-23T00:30:14.638Z,1010.73
2018-01-23T00:31:14.759Z,1010.77
2018-01-23T00:32:14.694Z,1010.76
2018-01-23T00:33:14.835Z,1010.78
2018-01-23T00:34:14.362Z,1010.80
2018-01-23T00:35:14.502Z,1010.80
2018-01-23T00:36:14.430Z,1010.81
2018-01-23T00:37:14.864Z,1010.85
2018-01-23T00:38:14.097Z,1010.86
2018-01-23T00:39:14.230Z,1010.87
2018-01-23T00:40:14.165Z,1010.89
2018-01-23T00:41:14.306Z,1010.91
2018-01-23T00:42:13.820Z,1010.94
2018-01-23T00:43:13.962Z,1010.99
2018-01-23T00:44:13.888Z,1011.02
2018-01-23T00:45:13.822Z,1011.05
2018-01-23T00:46:13.563Z,1011.07
2018-01-23T00:47:13.690Z,1011.08
2018-01-23T00:48:13.631Z,1011.06
2018-01-23T00:49:13.764Z,1011.06
2018-01-23T00:50:13.692Z,1011.04
2018-01-23T00:51:13.432Z,1011.00
2018-01-23T00:52:13.365Z,1011.00
2018-01-23T00:53:13.494Z,1010.97
2018-01-23T00:54:13.015Z,1010.85
2018-01-23T00:55:13.148Z,1010.82
2018-01-23T00:56:13.083Z,1010.82
2018-01-23T00:57:13.525Z,1010.78
2018-01-23T00:58:12.750Z,1010.74
2018-01-23T00:59:12.892Z,1010.77
2018-01-23T01:00:12.825Z,1010.85
2018-01-23T01:01:12.953Z,1010.87
2018-01-23T01:02:12.892Z,1010.86
2018-01-23T01:03:12.621Z,1010.82
2018-01-23T01:04:12.555Z,1010.76
2018-01-23T01:05:12.475Z,1010.77
2018-01-23T01:06:12.628Z,1010.75
2018-01-23T01:07:12.343Z,1010.76
2018-01-23T01:08:12.277Z,1010.78
2018-01-23T01:09:12.217Z,1010.80
2018-01-23T01:10:12.351Z,1010.84
2018-01-23T01:11:12.084Z,1010.84
2018-01-23T01:12:12.020Z,1010.89
2018-01-23T01:13:11.950Z,1010.85
2018-01-23T01:14:12.080Z,1010.91
2018-01-23T01:15:11.808Z,1010.92
2018-01-23T01:16:11.734Z,1010.94
2018-01-23T01:17:11.675Z,1011.02
2018-01-23T01:18:11.805Z,1011.10
2018-01-23T01:19:11.536Z,1011.12
2018-01-23T01:20:11.677Z,1011.18
2018-01-23T01:21:11.405Z,1011.21
2018-01-23T01:22:11.546Z,1011.28
2018-01-23T01:23:11.263Z,1011.30
2018-01-23T01:24:11.395Z,1011.34
2018-01-23T01:25:11.128Z,1011.34
2018-01-23T01:26:11.063Z,1011.39
2018-01-23T01:27:10.996Z,1011.44
2018-01-23T01:28:11.129Z,1011.45
2018-01-23T01:29:10.864Z,1011.49
2018-01-23T01:30:10.792Z,1011.49
2018-01-23T01:31:10.920Z,1011.54
2018-01-23T01:32:11.154Z,1011.58
2018-01-23T01:33:10.593Z,1011.58
2018-01-23T01:34:10.528Z,1011.61
2018-01-23T01:35:10.654Z,1011.58
2018-01-23T01:36:10.588Z,1011.56
2018-01-23T01:37:10.110Z,1011.54
2018-01-23T01:38:10.244Z,1011.62
2018-01-23T01:39:10.383Z,1011.74
2018-01-23T01:40:10.318Z,1011.84
2018-01-23T01:41:09.856Z,1011.89
2018-01-23T01:42:09.979Z,1011.90
2018-01-23T01:43:09.920Z,1011.91
2018-01-23T01:44:10.046Z,1011.95
2018-01-23T01:45:09.569Z,1011.98
2018-01-23T01:46:09.703Z,1011.99
2018-01-23T01:47:09.637Z,1012.03
2018-01-23T01:48:09.777Z,1012.07
2018-01-23T01:49:09.303Z,1012.04
2018-01-23T01:50:09.439Z,1012.08
2018-01-23T01:51:09.378Z,1012.02
2018-01-23T01:52:09.513Z,1012.03
2018-01-23T01:53:09.034Z,1011.96
2018-01-23T01:54:09.169Z,1011.90
2018-01-23T01:55:09.102Z,1011.81
2018-01-23T01:56:09.238Z,1011.80
2018-01-23T01:57:08.757Z,1011.82
2018-01-23T01:58:08.897Z,1011.80
2018-01-23T01:59:08.830Z,1011.85
2018-01-23T02:00:08.970Z,1011.80
2018-01-23T02:01:08.486Z,1011.75
2018-01-23T02:02:08.627Z,1011.79
2018-01-23T02:03:08.555Z,1011.81
2018-01-23T02:04:08.688Z,1011.83
2018-01-23T02:05:08.222Z,1011.84
2018-01-23T02:06:08.361Z,1011.88
2018-01-23T02:07:08.296Z,1011.91
2018-01-23T02:08:08.424Z,1011.90
2018-01-23T02:09:07.945Z,1011.92
2018-01-23T02:10:08.078Z,1011.96
2018-01-23T02:11:08.012Z,1011.99
2018-01-23T02:12:08.153Z,1011.99
2018-01-23T02:13:07.687Z,1011.97
2018-01-23T02:14:07.820Z,1011.91
2018-01-23T02:15:07.955Z,1011.94
2018-01-23T02:16:07.888Z,1011.94
2018-01-23T02:17:07.422Z,1011.96
2018-01-23T02:18:07.537Z,1011.96
2018-01-23T02:19:07.679Z,1012.00
2018-01-23T02:20:07.614Z,1012.06
2018-01-23T02:21:07.143Z,1012.15
2018-01-23T02:22:07.280Z,1012.18
2018-01-23T02:23:07.412Z,1012.17
2018-01-23T02:24:07.342Z,1012.19
2018-01-23T02:25:06.882Z,1012.18
2018-01-23T02:26:07.018Z,1012.22
2018-01-23T02:27:07.242Z,1012.27
2018-01-23T02:28:07.081Z,1012.25
2018-01-23T02:29:06.805Z,1012.29
2018-01-23T02:30:06.943Z,1012.30
2018-01-23T02:31:06.666Z,1012.25
2018-01-23T02:32:06.807Z,1012.27
2018-01-23T02:33:06.542Z,1012.29
2018-01-23T02:34:06.674Z,1012.33
2018-01-23T02:35:06.400Z,1012.32
2018-01-23T02:36:06.539Z,1012.34
2018-01-23T02:37:06.270Z,1012.42
2018-01-23T02:38:06.403Z,1012.47
2018-01-23T02:39:06.143Z,1012.48
2018-01-23T02:40:06.272Z,1012.46
2018-01-23T02:41:06.005Z,1012.49
2018-01-23T02:42:06.145Z,1012.55
2018-01-23T02:43:05.867Z,1012.53
2018-01-23T02:44:05.596Z,1012.57
2018-01-23T02:45:05.736Z,1012.60
2018-01-23T02:46:05.861Z,1012.58
2018-01-23T02:47:05.902Z,1012.58
2018-01-23T02:48:05.729Z,1012.63
2018-01-23T02:49:05.464Z,1012.59
2018-01-23T02:50:05.604Z,1012.57
2018-01-23T02:51:05.330Z,1012.55
2018-01-23T02:52:05.266Z,1012.51
2018-01-23T02:53:05.198Z,1012.48
2018-01-23T02:54:05.333Z,1012.50
2018-01-23T02:55:05.073Z,1012.55
2018-01-23T02:56:04.990Z,1012.51
2018-01-23T02:57:04.926Z,1012.51
2018-01-23T02:58:05.057Z,1012.52
2018-01-23T02:59:04.996Z,1012.53
2018-01-23T03:00:04.731Z,1012.54
2018-01-23T03:01:04.665Z,1012.53
2018-01-23T03:02:05.099Z,1012.57
2018-01-23T03:03:04.529Z,1012.55
2018-01-23T03:04:04.466Z,1012.60
2018-01-23T03:05:04.400Z,1012.60
2018-01-23T03:06:04.526Z,1012.62
2018-01-23T03:07:04.257Z,1012.66
2018-01-23T03:08:04.182Z,1012.66
2018-01-23T03:09:04.118Z,1012.67
2018-01-23T03:10:04.259Z,1012.71
2018-01-23T03:11:03.985Z,1012.71
2018-01-23T03:12:03.718Z,1012.74
2018-01-23T03:13:03.858Z,1012.78
2018-01-23T03:14:03.992Z,1012.75
2018-01-23T03:15:03.720Z,1012.74
2018-01-23T03:16:03.855Z,1012.72
2018-01-23T03:17:03.581Z,1012.72
2018-01-23T03:18:03.712Z,1012.71
2018-01-23T03:19:03.444Z,1012.68
2018-01-23T03:20:03.578Z,1012.65
2018-01-23T03:21:03.312Z,1012.68
2018-01-23T03:22:03.450Z,1012.72
2018-01-23T03:23:03.178Z,1012.79
2018-01-23T03:24:03.318Z,1012.80
2018-01-23T03:25:03.035Z,1012.83
2018-01-23T03:26:03.195Z,1012.93
2018-01-23T03:27:03.202Z,1012.96
2018-01-23T03:28:02.636Z,1012.90
2018-01-23T03:29:02.777Z,1012.90
2018-01-23T03:30:02.704Z,1012.90
2018-01-23T03:31:02.652Z,1012.92
2018-01-23T03:32:02.407Z,1012.93
2018-01-23T03:33:02.505Z,1012.93
2018-01-23T03:34:02.427Z,1012.99
2018-01-23T03:35:02.586Z,1012.98
2018-01-23T03:36:02.095Z,1012.98
2018-01-23T03:37:02.229Z,1013.04
2018-01-23T03:38:02.161Z,1013.05
2018-01-23T03:39:02.296Z,1013.06
2018-01-23T03:40:01.837Z,1013.08
2018-01-23T03:41:01.959Z,1013.08
2018-01-23T03:42:01.887Z,1013.04
2018-01-23T03:43:02.021Z,1013.01
2018-01-23T03:44:01.554Z,1013.02
2018-01-23T03:45:01.688Z,1013.04
2018-01-23T03:46:01.621Z,1013.06
2018-01-23T03:47:01.755Z,1013.07
2018-01-23T03:48:01.289Z,1013.07
2018-01-23T03:49:01.442Z,1013.09
2018-01-23T03:50:01.345Z,1013.13
2018-01-23T03:51:01.498Z,1013.11
2018-01-23T03:52:01.012Z,1013.10
2018-01-23T03:53:01.146Z,1013.14
2018-01-23T03:54:01.079Z,1013.14
2018-01-23T03:55:01.214Z,1013.17
2018-01-23T03:56:00.747Z,1013.22
2018-01-23T03:57:00.913Z,1013.21
2018-01-23T03:58:01.031Z,1013.19
2018-01-23T03:59:00.956Z,1013.19
2018-01-23T04:00:00.471Z,1013.25
2018-01-23T04:01:00.618Z,1013.30
2018-01-23T04:02:01.044Z,1013.29
2018-01-23T04:03:00.679Z,1013.27
2018-01-23T04:04:00.206Z,1013.29
2018-01-23T04:05:00.340Z,1013.29
2018-01-23T04:06:00.480Z,1013.29
2018-01-23T04:06:59.996Z,1013.27
2018-01-23T04:07:59.932Z,1013.31
2018-01-23T04:09:00.069Z,1013.32
2018-01-23T04:10:00.206Z,1013.32
2018-01-23T04:11:00.131Z,1013.35
2018-01-23T04:11:59.665Z,1013.39
2018-01-23T04:13:41.728Z,1013.44
2018-01-23T04:14:41.855Z,1013.41
2018-01-23T04:15:41.789Z,1013.46
2018-01-23T04:16:41.922Z,1013.45
2018-01-23T04:18:23.586Z,1013.46
2018-01-23T04:19:23.713Z,1013.46
2018-01-23T04:20:23.661Z,1013.45
2018-01-23T04:21:23.782Z,1013.49
2018-01-23T04:22:23.321Z,1013.52
2018-01-23T04:23:23.248Z,1013.53
2018-01-23T04:24:23.411Z,1013.56
2018-01-23T04:25:23.522Z,1013.60
2018-01-23T04:26:23.050Z,1013.61
2018-01-23T04:27:23.190Z,1013.61
2018-01-23T04:28:23.123Z,1013.66
2018-01-23T04:29:23.251Z,1013.70
2018-01-23T04:30:22.773Z,1013.70
2018-01-23T04:31:22.919Z,1013.70
2018-01-23T04:32:22.850Z,1013.76
2018-01-23T04:33:22.976Z,1013.78
2018-01-23T04:34:22.509Z,1013.82
2018-01-23T04:35:22.656Z,1013.86
2018-01-23T04:36:22.577Z,1013.88
2018-01-23T04:37:22.717Z,1013.92
2018-01-23T04:38:22.244Z,1013.91
2018-01-23T04:39:22.379Z,1013.92
2018-01-23T04:40:22.318Z,1013.93
2018-01-23T04:41:22.453Z,1013.94
2018-01-23T04:42:21.968Z,1013.95
2018-01-23T04:43:21.901Z,1013.93
2018-01-23T04:44:22.041Z,1013.96
2018-01-23T04:45:22.171Z,1013.97
2018-01-23T04:46:22.104Z,1014.00
2018-01-23T04:47:21.643Z,1014.07
2018-01-23T04:48:21.777Z,1014.06
2018-01-23T04:49:21.905Z,1014.10
2018-01-23T04:50:21.886Z,1014.15
2018-01-23T04:51:21.396Z,1014.12
2018-01-23T04:52:21.521Z,1014.13
2018-01-23T04:53:21.640Z,1014.13
2018-01-23T04:54:21.574Z,1014.13
2018-01-23T04:55:21.095Z,1014.16
2018-01-23T04:56:21.229Z,1014.15
2018-01-23T04:57:21.364Z,1014.16
2018-01-23T04:58:21.299Z,1014.17
2018-01-23T04:59:20.832Z,1014.20
2018-01-23T05:00:20.967Z,1014.21
2018-01-23T05:01:20.904Z,1014.21
2018-01-23T05:02:21.032Z,1014.23
2018-01-23T05:03:20.555Z,1014.17
2018-01-23T05:04:20.688Z,1014.18
2018-01-23T05:05:20.873Z,1014.20
2018-01-23T05:06:20.557Z,1014.15
2018-01-23T05:07:20.293Z,1014.18
2018-01-23T05:08:20.425Z,1014.22
2018-01-23T05:09:20.359Z,1014.26
2018-01-23T05:10:20.296Z,1014.31
2018-01-23T05:11:20.022Z,1014.33
2018-01-23T05:12:20.160Z,1014.35
2018-01-23T05:13:20.294Z,1014.40
2018-01-23T05:14:20.015Z,1014.38
2018-01-23T05:15:19.748Z,1014.40
2018-01-23T05:16:19.882Z,1014.44
2018-01-23T05:17:20.019Z,1014.46
2018-01-23T05:18:19.950Z,1014.47
2018-01-23T05:19:19.490Z,1014.43
2018-01-23T05:20:19.617Z,1014.50
2018-01-23T05:21:19.753Z,1014.56
2018-01-23T05:22:19.686Z,1014.60
2018-01-23T05:23:19.221Z,1014.63
2018-01-23T05:24:19.342Z,1014.65
2018-01-23T05:25:19.475Z,1014.66
2018-01-23T05:26:19.409Z,1014.67
2018-01-23T05:27:18.945Z,1014.69
2018-01-23T05:28:19.079Z,1014.68
2018-01-23T05:29:19.210Z,1014.68
2018-01-23T05:30:19.145Z,1014.71
2018-01-23T05:31:18.866Z,1014.73
2018-01-23T05:32:18.800Z,1014.74
2018-01-23T05:33:18.947Z,1014.77
2018-01-23T05:34:18.867Z,1014.73
2018-01-23T05:35:18.602Z,1014.72
2018-01-23T05:36:18.535Z,1014.71
2018-01-23T05:37:18.673Z,1014.73
2018-01-23T05:38:18.603Z,1014.77
2018-01-23T05:39:18.326Z,1014.79
2018-01-23T05:40:18.259Z,1014.85
2018-01-23T05:41:18.394Z,1014.85
2018-01-23T05:42:18.339Z,1014.89
2018-01-23T05:43:18.061Z,1014.92
2018-01-23T05:44:17.995Z,1014.90
2018-01-23T05:45:18.128Z,1014.89
2018-01-23T05:46:18.065Z,1014.93
2018-01-23T05:47:17.796Z,1014.94
2018-01-23T05:48:17.718Z,1015.00
2018-01-23T05:49:17.652Z,1014.99
2018-01-23T05:50:17.387Z,1015.01
2018-01-23T05:51:17.519Z,1014.98
2018-01-23T05:52:17.453Z,1014.95
2018-01-23T05:53:17.387Z,1015.03
2018-01-23T05:54:17.521Z,1015.00
2018-01-23T05:55:17.257Z,1015.04
2018-01-23T05:56:17.179Z,1015.05
2018-01-23T05:57:17.110Z,1015.08
2018-01-23T05:58:17.244Z,1015.09
2018-01-23T05:59:16.977Z,1015.13
2018-01-23T06:00:16.913Z,1015.17
2018-01-23T06:01:16.845Z,1015.16
2018-01-23T06:02:16.580Z,1015.17
2018-01-23T06:03:16.713Z,1015.12
2018-01-23T06:04:16.851Z,1015.11
2018-01-23T06:05:16.568Z,1015.05
2018-01-23T06:06:16.302Z,1015.06
2018-01-23T06:07:16.436Z,1015.12
2018-01-23T06:08:16.570Z,1015.24
2018-01-23T06:09:16.305Z,1015.33
2018-01-23T06:10:16.038Z,1015.36
2018-01-23T06:11:16.172Z,1015.34
2018-01-23T06:12:16.306Z,1015.32
2018-01-23T06:13:16.242Z,1015.21
2018-01-23T06:14:15.761Z,1015.17
2018-01-23T06:15:15.902Z,1015.17
2018-01-23T06:16:16.029Z,1015.24
2018-01-23T06:17:15.762Z,1015.29
2018-01-23T06:18:15.496Z,1015.26
2018-01-23T06:19:15.630Z,1015.32
2018-01-23T06:20:15.772Z,1015.35
2018-01-23T06:21:15.497Z,1015.39
2018-01-23T06:22:15.219Z,1015.43
2018-01-23T06:23:15.353Z,1015.43
2018-01-23T06:24:15.488Z,1015.45
2018-01-23T06:25:15.422Z,1015.48
2018-01-23T06:26:14.956Z,1015.52
2018-01-23T06:27:15.090Z,1015.58
2018-01-23T06:28:15.224Z,1015.54
2018-01-23T06:29:14.963Z,1015.51
2018-01-23T06:30:14.679Z,1015.52
2018-01-23T06:31:14.819Z,1015.56
2018-01-23T06:32:14.966Z,1015.65
2018-01-23T06:33:14.889Z,1015.72
2018-01-23T06:34:14.414Z,1015.71
2018-01-23T06:35:14.547Z,1015.67
2018-01-23T06:36:14.682Z,1015.70
2018-01-23T06:37:14.622Z,1015.65
2018-01-23T06:38:14.161Z,1015.68
2018-01-23T06:39:14.283Z,1015.74
2018-01-23T06:40:14.226Z,1015.77
2018-01-23T06:41:14.359Z,1015.80
2018-01-23T06:42:13.872Z,1015.83
2018-01-23T06:43:14.007Z,1015.87
2018-01-23T06:44:13.948Z,1015.90
2018-01-23T06:45:14.087Z,1015.86
2018-01-23T06:46:13.607Z,1015.90
2018-01-23T06:47:13.743Z,1015.97
2018-01-23T06:48:13.676Z,1016.02
2018-01-23T06:49:13.813Z,1016.04
2018-01-23T06:50:13.344Z,1016.08
2018-01-23T06:51:13.485Z,1016.11
2018-01-23T06:52:13.419Z,1016.17
2018-01-23T06:53:13.546Z,1016.16
2018-01-23T06:54:13.080Z,1016.20
2018-01-23T06:55:13.202Z,1016.18
2018-01-23T06:56:13.135Z,1016.24
2018-01-23T06:57:13.276Z,1016.29
2018-01-23T06:58:12.813Z,1016.33
2018-01-23T06:59:12.943Z,1016.32
2018-01-23T07:00:12.870Z,1016.32
2018-01-23T07:01:13.013Z,1016.28
2018-01-23T07:02:12.538Z,1016.22
2018-01-23T07:03:12.672Z,1016.21
2018-01-23T07:04:12.606Z,1016.18
2018-01-23T07:05:12.739Z,1016.21
2018-01-23T07:06:12.261Z,1016.20
2018-01-23T07:07:12.407Z,1016.20
2018-01-23T07:08:12.330Z,1016.21
2018-01-23T07:09:12.485Z,1016.24
2018-01-23T07:10:12.004Z,1016.27
2018-01-23T07:11:12.137Z,1016.28
2018-01-23T07:12:12.067Z,1016.27
2018-01-23T07:13:12.256Z,1016.26
2018-01-23T07:14:11.738Z,1016.26
2018-01-23T07:15:11.867Z,1016.30
2018-01-23T07:16:11.800Z,1016.30
2018-01-23T07:17:11.940Z,1016.36
2018-01-23T07:18:11.478Z,1016.37
2018-01-23T07:19:11.602Z,1016.39
2018-01-23T07:20:11.527Z,1016.39
2018-01-23T07:21:11.682Z,1016.37
2018-01-23T07:22:11.191Z,1016.38
2018-01-23T07:23:11.324Z,1016.35
2018-01-23T07:24:11.260Z,1016.41
2018-01-23T07:25:11.393Z,1016.42
2018-01-23T07:26:10.927Z,1016.44
2018-01-23T07:27:11.061Z,1016.47
2018-01-23T07:28:11.195Z,1016.51
2018-01-23T07:29:11.129Z,1016.55
2018-01-23T07:30:10.663Z,1016.57
2018-01-23T07:31:10.803Z,1016.62
2018-01-23T07:32:10.937Z,1016.61
2018-01-23T07:33:10.871Z,1016.66
2018-01-23T07:34:10.586Z,1016.66
2018-01-23T07:35:10.519Z,1016.68
2018-01-23T07:36:10.654Z,1016.66
2018-01-23T07:37:10.186Z,1016.66
2018-01-23T07:38:10.321Z,1016.65
2018-01-23T07:39:10.255Z,1016.64
2018-01-23T07:40:10.396Z,1016.66
2018-01-23T07:41:09.910Z,1016.67
2018-01-23T07:42:10.050Z,1016.69
2018-01-23T07:43:09.979Z,1016.71
2018-01-23T07:44:10.113Z,1016.66
2018-01-23T07:45:10.045Z,1016.62
2018-01-23T07:46:09.787Z,1016.62
2018-01-23T07:47:09.714Z,1016.64
2018-01-23T07:48:09.850Z,1016.60
2018-01-23T07:49:09.788Z,1016.62
2018-01-23T07:50:09.557Z,1016.68
2018-01-23T07:51:09.444Z,1016.74
2018-01-23T07:52:09.370Z,1016.78
2018-01-23T07:53:09.505Z,1016.81
2018-01-23T07:54:09.238Z,1016.84
2018-01-23T07:55:09.173Z,1016.88
2018-01-23T07:56:09.107Z,1016.93
2018-01-23T07:57:09.241Z,1016.95
2018-01-23T07:58:08.984Z,1016.94
2018-01-23T07:59:08.896Z,1016.91
2018-01-23T08:00:09.030Z,1016.89
2018-01-23T08:01:08.763Z,1016.84
2018-01-23T08:02:08.698Z,1016.89
2018-01-23T08:03:08.638Z,1016.90
2018-01-23T08:04:08.766Z,1016.92
2018-01-23T08:05:08.698Z,1016.93
2018-01-23T08:06:08.433Z,1016.97
2018-01-23T08:07:08.356Z,1016.99
2018-01-23T08:08:08.488Z,1016.99
2018-01-23T08:09:08.221Z,1017.03
2018-01-23T08:10:08.163Z,1017.04
2018-01-23T08:11:08.090Z,1017.02
2018-01-23T08:12:08.223Z,1017.04
2018-01-23T08:13:07.958Z,1017.03
2018-01-23T08:14:08.097Z,1017.02
2018-01-23T08:15:07.813Z,1017.01
2018-01-23T08:16:07.948Z,1017.00
2018-01-23T08:17:07.687Z,1017.05
2018-01-23T08:18:07.815Z,1017.01
2018-01-23T08:19:07.549Z,1017.00
2018-01-23T08:20:07.483Z,1016.99
2018-01-23T08:21:07.415Z,1017.06
2018-01-23T08:22:07.550Z,1017.07
2018-01-23T08:23:07.278Z,1017.11
2018-01-23T08:24:07.205Z,1017.20
2018-01-23T08:25:07.139Z,1017.23
2018-01-23T08:26:07.273Z,1017.29
2018-01-23T08:27:07.008Z,1017.28
2018-01-23T08:28:06.761Z,1017.27
2018-01-23T08:29:06.881Z,1017.27
2018-01-23T08:30:07.016Z,1017.29
2018-01-23T08:31:06.743Z,1017.31
2018-01-23T08:32:06.464Z,1017.32
2018-01-23T08:33:06.607Z,1017.32
2018-01-23T08:34:06.751Z,1017.35
2018-01-23T08:35:06.666Z,1017.38
2018-01-23T08:36:06.400Z,1017.40
2018-01-23T08:37:06.333Z,1017.43
2018-01-23T08:38:06.468Z,1017.43
2018-01-23T08:39:06.200Z,1017.45
2018-01-23T08:40:05.938Z,1017.44
2018-01-23T08:41:06.069Z,1017.42
2018-01-23T08:42:06.209Z,1017.42
2018-01-23T08:43:06.145Z,1017.42
2018-01-23T08:44:05.671Z,1017.39
2018-01-23T08:45:05.839Z,1017.39
2018-01-23T08:46:05.745Z,1017.44
2018-01-23T08:47:05.692Z,1017.45
2018-01-23T08:48:05.407Z,1017.43
2018-01-23T08:49:05.341Z,1017.45
2018-01-23T08:50:05.474Z,1017.47
2018-01-23T08:51:05.627Z,1017.47
2018-01-23T08:52:05.148Z,1017.49
2018-01-23T08:53:05.075Z,1017.48
2018-01-23T08:54:05.209Z,1017.51
2018-01-23T08:55:05.344Z,1017.45
2018-01-23T08:56:04.884Z,1017.46
2018-01-23T08:57:05.011Z,1017.50
2018-01-23T08:58:04.952Z,1017.56
2018-01-23T08:59:04.880Z,1017.59
2018-01-23T09:00:04.612Z,1017.64
2018-01-23T09:01:04.747Z,1017.67
2018-01-23T09:02:04.669Z,1017.66
2018-01-23T09:03:04.814Z,1017.75
2018-01-23T09:04:04.339Z,1017.73
2018-01-23T09:05:04.470Z,1017.69
2018-01-23T09:06:04.404Z,1017.72
2018-01-23T09:07:04.545Z,1017.69
2018-01-23T09:08:04.079Z,1017.68
2018-01-23T09:09:04.213Z,1017.78
2018-01-23T09:10:04.140Z,1017.74
2018-01-23T09:11:04.273Z,1017.79
2018-01-23T09:12:03.795Z,1017.82
2018-01-23T09:13:03.937Z,1017.81
2018-01-23T09:14:03.870Z,1017.81
2018-01-23T09:15:03.998Z,1017.78
2018-01-23T09:16:03.532Z,1017.80
2018-01-23T09:17:03.464Z,1017.76
2018-01-23T09:18:03.598Z,1017.79
2018-01-23T09:19:03.731Z,1017.77
2018-01-23T09:20:03.255Z,1017.69
2018-01-23T09:21:03.188Z,1017.69
2018-01-23T09:22:03.322Z,1017.59
2018-01-23T09:23:03.456Z,1017.60
2018-01-23T09:24:02.989Z,1017.59
2018-01-23T09:25:03.122Z,1017.63
2018-01-23T09:26:03.057Z,1017.72
2018-01-23T09:27:03.193Z,1017.80
2018-01-23T09:28:02.715Z,1017.92
2018-01-23T09:29:02.847Z,1017.99
2018-01-23T09:30:02.814Z,1018.02
2018-01-23T09:31:02.915Z,1018.06
2018-01-23T09:32:02.457Z,1018.01
2018-01-23T09:33:02.582Z,1018.08
2018-01-23T09:34:02.504Z,1018.07
2018-01-23T09:35:02.656Z,1018.07
2018-01-23T09:36:02.182Z,1018.07
2018-01-23T09:37:02.111Z,1018.06
2018-01-23T09:38:02.238Z,1018.07
2018-01-23T09:39:02.380Z,1018.12
2018-01-23T09:40:01.903Z,1018.16
2018-01-23T09:41:02.034Z,1018.14
2018-01-23T09:42:01.961Z,1018.21
2018-01-23T09:43:02.101Z,1018.20
2018-01-23T09:44:01.623Z,1018.20
2018-01-23T09:45:01.751Z,1018.22
2018-01-23T09:46:01.692Z,1018.22
2018-01-23T09:47:01.819Z,1018.20
2018-01-23T09:48:01.358Z,1018.24
2018-01-23T09:49:01.476Z,1018.22
2018-01-23T09:50:01.626Z,1018.26
2018-01-23T09:51:01.341Z,1018.26
2018-01-23T09:52:01.075Z,1018.28
2018-01-23T09:53:01.209Z,1018.31
2018-01-23T09:54:01.344Z,1018.31
2018-01-23T09:55:01.071Z,1018.32
2018-01-23T09:56:01.004Z,1018.30
2018-01-23T09:57:00.940Z,1018.32
2018-01-23T09:58:01.066Z,1018.33
2018-01-23T09:59:00.997Z,1018.29
2018-01-23T10:00:00.722Z,1018.30
2018-01-23T10:01:00.656Z,1018.32
2018-01-23T10:02:00.589Z,1018.35
2018-01-23T10:03:00.725Z,1018.37
2018-01-23T10:04:00.445Z,1018.37
2018-01-23T10:05:00.585Z,1018.38
2018-01-23T10:06:00.319Z,1018.37
2018-01-23T10:07:00.449Z,1018.39
2018-01-23T10:08:00.176Z,1018.35
2018-01-23T10:09:00.309Z,1018.35
2018-01-23T10:10:00.045Z,1018.35
2018-01-23T10:11:00.177Z,1018.36
2018-01-23T10:11:59.898Z,1018.33
2018-01-23T10:13:00.038Z,1018.30
2018-01-23T10:13:59.959Z,1018.28
2018-01-23T10:14:59.493Z,1018.28
2018-01-23T10:15:59.627Z,1018.30
2018-01-23T10:16:59.760Z,1018.32
2018-01-23T10:17:59.684Z,1018.28
2018-01-23T10:18:59.215Z,1018.30
2018-01-23T10:19:59.356Z,1018.34
2018-01-23T10:20:59.485Z,1018.31
2018-01-23T10:21:59.419Z,1018.30
2018-01-23T10:22:58.945Z,1018.28
2018-01-23T10:23:59.073Z,1018.31
2018-01-23T10:24:59.014Z,1018.35
2018-01-23T10:25:59.140Z,1018.32
2018-01-23T10:26:58.662Z,1018.35
2018-01-23T10:27:58.804Z,1018.36
2018-01-23T10:28:58.732Z,1018.35
2018-01-23T10:29:58.871Z,1018.32
2018-01-23T10:30:58.387Z,1018.36
2018-01-23T10:31:58.519Z,1018.32
2018-01-23T10:32:58.652Z,1018.32
2018-01-23T10:33:58.599Z,1018.32
2018-01-23T10:34:58.109Z,1018.30
2018-01-23T10:35:58.250Z,1018.32
2018-01-23T10:36:58.376Z,1018.34
2018-01-23T10:37:57.917Z,1018.38
2018-01-23T10:38:57.843Z,1018.39
2018-01-23T10:39:57.978Z,1018.38
2018-01-23T10:40:58.118Z,1018.42
2018-01-23T10:41:58.035Z,1018.48
2018-01-23T10:42:57.774Z,1018.50
2018-01-23T10:43:57.707Z,1018.50
2018-01-23T10:44:57.835Z,1018.54
2018-01-23T10:45:57.775Z,1018.53
2018-01-23T10:46:57.295Z,1018.51
2018-01-23T10:47:57.424Z,1018.51
2018-01-23T10:48:57.557Z,1018.49
2018-01-23T10:49:57.491Z,1018.48
2018-01-23T10:50:57.218Z,1018.46
2018-01-23T10:51:57.156Z,1018.42
2018-01-23T10:52:57.281Z,1018.42
2018-01-23T10:53:57.222Z,1018.46
2018-01-23T10:54:56.944Z,1018.45
2018-01-23T10:55:56.870Z,1018.44
2018-01-23T10:56:56.822Z,1018.39
2018-01-23T10:57:56.938Z,1018.40
2018-01-23T10:58:56.660Z,1018.39
2018-01-23T10:59:56.592Z,1018.38
2018-01-23T11:00:56.534Z,1018.35
2018-01-23T11:01:56.475Z,1018.35
2018-01-23T11:02:56.383Z,1018.34
2018-01-23T11:03:56.322Z,1018.34
2018-01-23T11:04:56.457Z,1018.32
2018-01-23T11:05:56.389Z,1018.31
2018-01-23T11:06:55.912Z,1018.27
2018-01-23T11:07:56.040Z,1018.27
2018-01-23T11:08:56.173Z,1018.30
2018-01-23T11:09:55.912Z,1018.29
2018-01-23T11:10:55.628Z,1018.32
2018-01-23T11:11:55.768Z,1018.25
2018-01-23T11:12:55.896Z,1018.24
2018-01-23T11:13:55.618Z,1018.27
2018-01-23T11:14:55.769Z,1018.25
2018-01-23T11:15:55.485Z,1018.23
2018-01-23T11:16:55.626Z,1018.25
2018-01-23T11:17:55.341Z,1018.27
2018-01-23T11:18:55.475Z,1018.33
2018-01-23T11:19:55.208Z,1018.29
2018-01-23T11:20:55.343Z,1018.29
2018-01-23T11:21:55.064Z,1018.27
2018-01-23T11:22:55.197Z,1018.22
2018-01-23T11:23:54.931Z,1018.25
2018-01-23T11:24:55.072Z,1018.26
2018-01-23T11:25:54.789Z,1018.32
2018-01-23T11:26:54.920Z,1018.30
2018-01-23T11:27:54.661Z,1018.30
2018-01-23T11:28:54.796Z,1018.33
2018-01-23T11:29:54.511Z,1018.29
2018-01-23T11:30:54.644Z,1018.29
2018-01-23T11:31:54.377Z,1018.21
2018-01-23T11:32:54.311Z,1018.24
2018-01-23T11:33:54.251Z,1018.23
2018-01-23T11:34:54.373Z,1018.17
2018-01-23T11:35:54.109Z,1018.17
2018-01-23T11:36:53.834Z,1018.14
2018-01-23T11:37:53.964Z,1018.14
2018-01-23T11:38:54.090Z,1018.14
2018-01-23T11:39:53.824Z,1018.13
2018-01-23T11:40:53.758Z,1018.16
2018-01-23T11:41:53.692Z,1018.21
2018-01-23T11:42:53.821Z,1018.20
2018-01-23T11:43:53.547Z,1018.28
2018-01-23T11:44:53.282Z,1018.27
2018-01-23T11:45:53.421Z,1018.28
2018-01-23T11:46:53.555Z,1018.25
2018-01-23T11:47:53.277Z,1018.30
2018-01-23T11:48:53.211Z,1018.32
2018-01-23T11:49:53.138Z,1018.34
2018-01-23T11:50:53.279Z,1018.34
2018-01-23T11:51:53.000Z,1018.30
2018-01-23T11:52:52.928Z,1018.25
2018-01-23T11:53:52.862Z,1018.29
2018-01-23T11:54:53.000Z,1018.33
2018-01-23T11:55:52.730Z,1018.34
2018-01-23T11:56:52.658Z,1018.33
2018-01-23T11:57:52.584Z,1018.34
2018-01-23T11:58:52.519Z,1018.34
2018-01-23T11:59:52.465Z,1018.34
2018-01-23T12:00:52.391Z,1018.41
2018-01-23T12:01:52.573Z,1018.37
2018-01-23T12:02:52.241Z,1018.43
2018-01-23T12:03:52.374Z,1018.45
2018-01-23T12:04:52.122Z,1018.49
2018-01-23T12:05:52.031Z,1018.49